sensor_id;sensor_type;location;lat;lon;timestamp;pressure;altitude;pressure_sealevel;temperature
18704;BMP180;9481;48.796;9.210;2022-08-20T00:01:43;96525.00;;;25.50
18704;BMP180;9481;48.796;9.210;2022-08-20T00:04:10;96523.00;;;25.50
18704;BMP180;9481;48.796;9.210;2022-08-20T00:06:36;96527.00;;;25.50
18704;BMP180;9481;48.796;9.210;2022-08-20T00:09:03;96534.00;;;25.50
18704;BMP180;9481;48.796;9.210;2022-08-20T00:11:29;96538.00;;;25.40
18704;BMP180;9481;48.796;9.210;2022-08-20T00:13:59;96532.00;;;25.40
18704;BMP180;9481;48.796;9.210;2022-08-20T00:16:30;96535.00;;;25.40
18704;BMP180;9481;48.796;9.210;2022-08-20T00:19:02;96533.00;;;25.40
18704;BMP180;9481;48.796;9.210;2022-08-20T00:21:28;96531.00;;;25.40
18704;BMP180;9481;48.796;9.210;2022-08-20T00:23:55;96525.00;;;25.40
18704;BMP180;9481;48.796;9.210;2022-08-20T00:26:23;96530.00;;;25.30
18704;BMP180;9481;48.796;9.210;2022-08-20T00:28:50;96531.00;;;25.30
18704;BMP180;9481;48.796;9.210;2022-08-20T00:31:20;96534.00;;;25.30
18704;BMP180;9481;48.796;9.210;2022-08-20T00:33:47;96545.00;;;25.30
18704;BMP180;9481;48.796;9.210;2022-08-20T00:36:14;96539.00;;;25.30
18704;BMP180;9481;48.796;9.210;2022-08-20T00:38:44;96535.00;;;25.30
18704;BMP180;9481;48.796;9.210;2022-08-20T00:41:17;96531.00;;;25.30
18704;BMP180;9481;48.796;9.210;2022-08-20T00:43:51;96538.00;;;25.20
18704;BMP180;9481;48.796;9.210;2022-08-20T00:46:24;96531.00;;;25.20
18704;BMP180;9481;48.796;9.210;2022-08-20T00:48:54;96538.00;;;25.20
18704;BMP180;9481;48.796;9.210;2022-08-20T00:51:35;96526.00;;;25.20
18704;BMP180;9481;48.796;9.210;2022-08-20T00:54:22;96543.00;;;25.20
18704;BMP180;9481;48.796;9.210;2022-08-20T00:57:10;96534.00;;;25.10
18704;BMP180;9481;48.796;9.210;2022-08-20T00:59:40;96539.00;;;25.20
18704;BMP180;9481;48.796;9.210;2022-08-20T01:02:12;96531.00;;;25.20
18704;BMP180;9481;48.796;9.210;2022-08-20T01:04:39;96532.00;;;25.20
18704;BMP180;9481;48.796;9.210;2022-08-20T01:07:06;96534.00;;;25.10
18704;BMP180;9481;48.796;9.210;2022-08-20T01:09:34;96541.00;;;25.10
18704;BMP180;9481;48.796;9.210;2022-08-20T01:12:02;96551.00;;;25.10
18704;BMP180;9481;48.796;9.210;2022-08-20T01:14:29;96549.00;;;25.10
18704;BMP180;9481;48.796;9.210;2022-08-20T01:17:06;96541.00;;;25.00
18704;BMP180;9481;48.796;9.210;2022-08-20T01:19:39;96543.00;;;25.00
18704;BMP180;9481;48.796;9.210;2022-08-20T01:22:07;96551.00;;;25.00
18704;BMP180;9481;48.796;9.210;2022-08-20T01:25:00;96550.00;;;24.90
18704;BMP180;9481;48.796;9.210;2022-08-20T01:27:29;96557.00;;;25.00
18704;BMP180;9481;48.796;9.210;2022-08-20T01:29:56;96553.00;;;25.00
18704;BMP180;9481;48.796;9.210;2022-08-20T01:32:22;96554.00;;;25.00
18704;BMP180;9481;48.796;9.210;2022-08-20T01:34:47;96557.00;;;25.00
18704;BMP180;9481;48.796;9.210;2022-08-20T01:37:13;96556.00;;;25.00
18704;BMP180;9481;48.796;9.210;2022-08-20T01:39:39;96565.00;;;25.00
18704;BMP180;9481;48.796;9.210;2022-08-20T01:42:21;96568.00;;;24.90
18704;BMP180;9481;48.796;9.210;2022-08-20T01:44:49;96568.00;;;25.00
18704;BMP180;9481;48.796;9.210;2022-08-20T01:47:19;96570.00;;;25.00
18704;BMP180;9481;48.796;9.210;2022-08-20T01:49:52;96571.00;;;25.00
18704;BMP180;9481;48.796;9.210;2022-08-20T01:53:00;96577.00;;;24.90
18704;BMP180;9481;48.796;9.210;2022-08-20T01:55:30;96572.00;;;25.00
18704;BMP180;9481;48.796;9.210;2022-08-20T01:57:56;96585.00;;;25.00
18704;BMP180;9481;48.796;9.210;2022-08-20T02:00:24;96582.00;;;25.00
18704;BMP180;9481;48.796;9.210;2022-08-20T02:02:50;96576.00;;;25.00
18704;BMP180;9481;48.796;9.210;2022-08-20T02:05:18;96579.00;;;25.00
18704;BMP180;9481;48.796;9.210;2022-08-20T02:07:44;96580.00;;;25.00
18704;BMP180;9481;48.796;9.210;2022-08-20T02:10:13;96570.00;;;25.00
18704;BMP180;9481;48.796;9.210;2022-08-20T02:12:40;96574.00;;;25.00
18704;BMP180;9481;48.796;9.210;2022-08-20T02:15:09;96582.00;;;25.00
18704;BMP180;9481;48.796;9.210;2022-08-20T02:17:37;96571.00;;;25.00
18704;BMP180;9481;48.796;9.210;2022-08-20T02:20:22;96572.00;;;24.90
18704;BMP180;9481;48.796;9.210;2022-08-20T02:22:55;96582.00;;;25.00
18704;BMP180;9481;48.796;9.210;2022-08-20T02:25:24;96590.00;;;25.00
18704;BMP180;9481;48.796;9.210;2022-08-20T02:27:52;96582.00;;;25.00
18704;BMP180;9481;48.796;9.210;2022-08-20T02:30:28;96593.00;;;25.00
18704;BMP180;9481;48.796;9.210;2022-08-20T02:32:56;96586.00;;;25.00
18704;BMP180;9481;48.796;9.210;2022-08-20T02:35:21;96589.00;;;25.00
18704;BMP180;9481;48.796;9.210;2022-08-20T02:37:49;96584.00;;;25.00
18704;BMP180;9481;48.796;9.210;2022-08-20T02:40:18;96585.00;;;25.00
18704;BMP180;9481;48.796;9.210;2022-08-20T02:42:44;96589.00;;;25.00
18704;BMP180;9481;48.796;9.210;2022-08-20T02:45:15;96582.00;;;25.00
18704;BMP180;9481;48.796;9.210;2022-08-20T02:47:42;96586.00;;;25.00
18704;BMP180;9481;48.796;9.210;2022-08-20T02:50:17;96586.00;;;25.00
18704;BMP180;9481;48.796;9.210;2022-08-20T02:52:44;96582.00;;;25.00
18704;BMP180;9481;48.796;9.210;2022-08-20T02:55:11;96588.00;;;25.00
18704;BMP180;9481;48.796;9.210;2022-08-20T02:57:38;96576.00;;;25.00
18704;BMP180;9481;48.796;9.210;2022-08-20T03:00:14;96567.00;;;24.90
18704;BMP180;9481;48.796;9.210;2022-08-20T03:02:41;96575.00;;;24.90
18704;BMP180;9481;48.796;9.210;2022-08-20T03:05:07;96572.00;;;24.90
18704;BMP180;9481;48.796;9.210;2022-08-20T03:07:50;96560.00;;;24.90
18704;BMP180;9481;48.796;9.210;2022-08-20T03:10:24;96566.00;;;24.90
18704;BMP180;9481;48.796;9.210;2022-08-20T03:12:50;96568.00;;;24.90
18704;BMP180;9481;48.796;9.210;2022-08-20T03:15:17;96562.00;;;24.90
18704;BMP180;9481;48.796;9.210;2022-08-20T03:17:44;96565.00;;;24.90
18704;BMP180;9481;48.796;9.210;2022-08-20T03:20:10;96561.00;;;24.90
18704;BMP180;9481;48.796;9.210;2022-08-20T03:22:36;96559.00;;;24.90
18704;BMP180;9481;48.796;9.210;2022-08-20T03:25:03;96558.00;;;24.90
18704;BMP180;9481;48.796;9.210;2022-08-20T03:27:30;96564.00;;;24.90
18704;BMP180;9481;48.796;9.210;2022-08-20T03:29:55;96569.00;;;24.80
18704;BMP180;9481;48.796;9.210;2022-08-20T03:32:21;96572.00;;;24.80
18704;BMP180;9481;48.796;9.210;2022-08-20T03:34:47;96570.00;;;24.80
18704;BMP180;9481;48.796;9.210;2022-08-20T03:37:13;96570.00;;;24.80
18704;BMP180;9481;48.796;9.210;2022-08-20T03:39:39;96564.00;;;24.80
18704;BMP180;9481;48.796;9.210;2022-08-20T03:42:05;96567.00;;;24.80
18704;BMP180;9481;48.796;9.210;2022-08-20T03:44:32;96584.00;;;24.80
18704;BMP180;9481;48.796;9.210;2022-08-20T03:46:58;96577.00;;;24.80
18704;BMP180;9481;48.796;9.210;2022-08-20T03:49:24;96574.00;;;24.70
18704;BMP180;9481;48.796;9.210;2022-08-20T03:51:50;96581.00;;;24.70
18704;BMP180;9481;48.796;9.210;2022-08-20T03:54:16;96581.00;;;24.70
18704;BMP180;9481;48.796;9.210;2022-08-20T03:56:42;96587.00;;;24.70
18704;BMP180;9481;48.796;9.210;2022-08-20T03:59:08;96584.00;;;24.70
18704;BMP180;9481;48.796;9.210;2022-08-20T04:01:34;96576.00;;;24.70
18704;BMP180;9481;48.796;9.210;2022-08-20T04:04:00;96592.00;;;24.70
18704;BMP180;9481;48.796;9.210;2022-08-20T04:06:26;96593.00;;;24.70
18704;BMP180;9481;48.796;9.210;2022-08-20T04:08:54;96582.00;;;24.70
18704;BMP180;9481;48.796;9.210;2022-08-20T04:11:20;96583.00;;;24.70
18704;BMP180;9481;48.796;9.210;2022-08-20T04:13:46;96582.00;;;24.70
18704;BMP180;9481;48.796;9.210;2022-08-20T04:16:11;96578.00;;;24.70
18704;BMP180;9481;48.796;9.210;2022-08-20T04:18:37;96579.00;;;24.70
18704;BMP180;9481;48.796;9.210;2022-08-20T04:21:04;96578.00;;;24.80
18704;BMP180;9481;48.796;9.210;2022-08-20T04:23:30;96586.00;;;24.70
18704;BMP180;9481;48.796;9.210;2022-08-20T04:25:57;96590.00;;;24.70
18704;BMP180;9481;48.796;9.210;2022-08-20T04:28:24;96588.00;;;24.80
18704;BMP180;9481;48.796;9.210;2022-08-20T04:30:53;96588.00;;;24.80
18704;BMP180;9481;48.796;9.210;2022-08-20T04:33:20;96589.00;;;24.80
18704;BMP180;9481;48.796;9.210;2022-08-20T04:35:46;96591.00;;;24.80
18704;BMP180;9481;48.796;9.210;2022-08-20T04:38:16;96597.00;;;24.80
18704;BMP180;9481;48.796;9.210;2022-08-20T04:40:42;96602.00;;;24.80
18704;BMP180;9481;48.796;9.210;2022-08-20T04:43:34;96604.00;;;24.80
18704;BMP180;9481;48.796;9.210;2022-08-20T04:46:05;96609.00;;;24.80
18704;BMP180;9481;48.796;9.210;2022-08-20T04:48:33;96611.00;;;24.80
18704;BMP180;9481;48.796;9.210;2022-08-20T04:50:59;96617.00;;;24.80
18704;BMP180;9481;48.796;9.210;2022-08-20T04:53:28;96617.00;;;24.80
18704;BMP180;9481;48.796;9.210;2022-08-20T04:55:58;96613.00;;;24.80
18704;BMP180;9481;48.796;9.210;2022-08-20T04:58:30;96613.00;;;24.80
18704;BMP180;9481;48.796;9.210;2022-08-20T05:01:02;96610.00;;;24.80
18704;BMP180;9481;48.796;9.210;2022-08-20T05:03:29;96619.00;;;24.80
18704;BMP180;9481;48.796;9.210;2022-08-20T05:05:56;96621.00;;;24.80
18704;BMP180;9481;48.796;9.210;2022-08-20T05:08:23;96621.00;;;24.80
18704;BMP180;9481;48.796;9.210;2022-08-20T05:10:52;96617.00;;;24.80
18704;BMP180;9481;48.796;9.210;2022-08-20T05:13:18;96617.00;;;24.80
18704;BMP180;9481;48.796;9.210;2022-08-20T05:15:43;96623.00;;;24.80
18704;BMP180;9481;48.796;9.210;2022-08-20T05:18:17;96621.00;;;24.70
18704;BMP180;9481;48.796;9.210;2022-08-20T05:20:46;96618.00;;;24.70
18704;BMP180;9481;48.796;9.210;2022-08-20T05:23:14;96624.00;;;24.70
18704;BMP180;9481;48.796;9.210;2022-08-20T05:25:43;96622.00;;;24.80
18704;BMP180;9481;48.796;9.210;2022-08-20T05:28:15;96629.00;;;24.70
18704;BMP180;9481;48.796;9.210;2022-08-20T05:30:45;96624.00;;;24.70
18704;BMP180;9481;48.796;9.210;2022-08-20T05:33:13;96632.00;;;24.70
18704;BMP180;9481;48.796;9.210;2022-08-20T05:35:42;96628.00;;;24.70
18704;BMP180;9481;48.796;9.210;2022-08-20T05:38:11;96631.00;;;24.70
18704;BMP180;9481;48.796;9.210;2022-08-20T05:40:40;96633.00;;;24.70
18704;BMP180;9481;48.796;9.210;2022-08-20T05:43:07;96637.00;;;24.70
18704;BMP180;9481;48.796;9.210;2022-08-20T05:45:36;96644.00;;;24.70
18704;BMP180;9481;48.796;9.210;2022-08-20T05:48:09;96652.00;;;24.70
18704;BMP180;9481;48.796;9.210;2022-08-20T05:50:41;96645.00;;;24.70
18704;BMP180;9481;48.796;9.210;2022-08-20T05:53:08;96645.00;;;24.70
18704;BMP180;9481;48.796;9.210;2022-08-20T05:55:34;96643.00;;;24.70
18704;BMP180;9481;48.796;9.210;2022-08-20T05:58:05;96646.00;;;24.70
18704;BMP180;9481;48.796;9.210;2022-08-20T06:00:33;96654.00;;;24.70
18704;BMP180;9481;48.796;9.210;2022-08-20T06:02:59;96647.00;;;24.80
18704;BMP180;9481;48.796;9.210;2022-08-20T06:05:44;96649.00;;;24.80
18704;BMP180;9481;48.796;9.210;2022-08-20T06:08:11;96637.00;;;24.80
18704;BMP180;9481;48.796;9.210;2022-08-20T06:10:39;96645.00;;;24.80
18704;BMP180;9481;48.796;9.210;2022-08-20T06:13:05;96638.00;;;24.80
18704;BMP180;9481;48.796;9.210;2022-08-20T06:15:33;96637.00;;;24.80
18704;BMP180;9481;48.796;9.210;2022-08-20T06:18:00;96643.00;;;24.90
18704;BMP180;9481;48.796;9.210;2022-08-20T06:20:26;96640.00;;;24.90
18704;BMP180;9481;48.796;9.210;2022-08-20T06:22:54;96651.00;;;24.90
18704;BMP180;9481;48.796;9.210;2022-08-20T06:25:20;96658.00;;;24.90
18704;BMP180;9481;48.796;9.210;2022-08-20T06:27:46;96651.00;;;25.00
18704;BMP180;9481;48.796;9.210;2022-08-20T06:30:14;96646.00;;;25.00
18704;BMP180;9481;48.796;9.210;2022-08-20T06:32:40;96651.00;;;25.10
18704;BMP180;9481;48.796;9.210;2022-08-20T06:35:09;96650.00;;;25.10
18704;BMP180;9481;48.796;9.210;2022-08-20T06:37:38;96657.00;;;25.10
18704;BMP180;9481;48.796;9.210;2022-08-20T06:40:18;96651.00;;;25.10
18704;BMP180;9481;48.796;9.210;2022-08-20T06:42:45;96662.00;;;25.20
18704;BMP180;9481;48.796;9.210;2022-08-20T06:45:13;96655.00;;;25.20
18704;BMP180;9481;48.796;9.210;2022-08-20T06:47:43;96658.00;;;25.10
18704;BMP180;9481;48.796;9.210;2022-08-20T06:50:21;96661.00;;;25.10
18704;BMP180;9481;48.796;9.210;2022-08-20T06:52:47;96658.00;;;25.20
18704;BMP180;9481;48.796;9.210;2022-08-20T06:55:15;96654.00;;;25.20
18704;BMP180;9481;48.796;9.210;2022-08-20T06:57:42;96656.00;;;25.20
18704;BMP180;9481;48.796;9.210;2022-08-20T07:00:16;96655.00;;;25.20
18704;BMP180;9481;48.796;9.210;2022-08-20T07:02:43;96658.00;;;25.20
18704;BMP180;9481;48.796;9.210;2022-08-20T07:05:10;96661.00;;;25.20
18704;BMP180;9481;48.796;9.210;2022-08-20T07:07:36;96656.00;;;25.30
18704;BMP180;9481;48.796;9.210;2022-08-20T07:10:09;96653.00;;;25.20
18704;BMP180;9481;48.796;9.210;2022-08-20T07:12:36;96661.00;;;25.30
18704;BMP180;9481;48.796;9.210;2022-08-20T07:15:05;96652.00;;;25.30
18704;BMP180;9481;48.796;9.210;2022-08-20T07:17:32;96663.00;;;25.30
18704;BMP180;9481;48.796;9.210;2022-08-20T07:19:57;96653.00;;;25.30
18704;BMP180;9481;48.796;9.210;2022-08-20T07:22:23;96670.00;;;25.40
18704;BMP180;9481;48.796;9.210;2022-08-20T07:24:50;96654.00;;;25.40
18704;BMP180;9481;48.796;9.210;2022-08-20T07:27:21;96665.00;;;25.40
18704;BMP180;9481;48.796;9.210;2022-08-20T07:29:48;96671.00;;;25.40
18704;BMP180;9481;48.796;9.210;2022-08-20T07:32:33;96670.00;;;25.40
18704;BMP180;9481;48.796;9.210;2022-08-20T07:35:08;96674.00;;;25.40
18704;BMP180;9481;48.796;9.210;2022-08-20T07:37:40;96676.00;;;25.50
18704;BMP180;9481;48.796;9.210;2022-08-20T07:40:11;96679.00;;;25.50
18704;BMP180;9481;48.796;9.210;2022-08-20T07:42:38;96686.00;;;25.50
18704;BMP180;9481;48.796;9.210;2022-08-20T07:45:12;96683.00;;;25.50
18704;BMP180;9481;48.796;9.210;2022-08-20T07:47:40;96699.00;;;25.60
18704;BMP180;9481;48.796;9.210;2022-08-20T07:50:09;96692.00;;;25.60
18704;BMP180;9481;48.796;9.210;2022-08-20T07:52:36;96691.00;;;25.70
18704;BMP180;9481;48.796;9.210;2022-08-20T07:55:09;96685.00;;;25.70
18704;BMP180;9481;48.796;9.210;2022-08-20T07:57:36;96695.00;;;25.80
18704;BMP180;9481;48.796;9.210;2022-08-20T08:00:05;96688.00;;;25.80
18704;BMP180;9481;48.796;9.210;2022-08-20T08:02:33;96693.00;;;25.90
18704;BMP180;9481;48.796;9.210;2022-08-20T08:05:00;96695.00;;;25.90
18704;BMP180;9481;48.796;9.210;2022-08-20T08:07:27;96686.00;;;25.90
18704;BMP180;9481;48.796;9.210;2022-08-20T08:09:54;96691.00;;;26.00
18704;BMP180;9481;48.796;9.210;2022-08-20T08:12:21;96692.00;;;26.00
18704;BMP180;9481;48.796;9.210;2022-08-20T08:14:48;96693.00;;;26.10
18704;BMP180;9481;48.796;9.210;2022-08-20T08:17:16;96688.00;;;26.20
18704;BMP180;9481;48.796;9.210;2022-08-20T08:19:48;96692.00;;;26.20
18704;BMP180;9481;48.796;9.210;2022-08-20T08:22:18;96693.00;;;26.20
18704;BMP180;9481;48.796;9.210;2022-08-20T08:24:45;96687.00;;;26.30
18704;BMP180;9481;48.796;9.210;2022-08-20T08:27:14;96681.00;;;26.40
18704;BMP180;9481;48.796;9.210;2022-08-20T08:29:46;96682.00;;;26.40
18704;BMP180;9481;48.796;9.210;2022-08-20T08:32:14;96683.00;;;26.50
18704;BMP180;9481;48.796;9.210;2022-08-20T08:34:39;96677.00;;;26.60
18704;BMP180;9481;48.796;9.210;2022-08-20T08:37:05;96685.00;;;26.70
18704;BMP180;9481;48.796;9.210;2022-08-20T08:39:32;96683.00;;;26.80
18704;BMP180;9481;48.796;9.210;2022-08-20T08:41:59;96671.00;;;26.90
18704;BMP180;9481;48.796;9.210;2022-08-20T08:44:33;96673.00;;;26.90
18704;BMP180;9481;48.796;9.210;2022-08-20T08:47:19;96668.00;;;27.00
18704;BMP180;9481;48.796;9.210;2022-08-20T08:49:47;96680.00;;;27.20
18704;BMP180;9481;48.796;9.210;2022-08-20T08:52:31;96677.00;;;27.20
18704;BMP180;9481;48.796;9.210;2022-08-20T08:55:05;96682.00;;;27.40
18704;BMP180;9481;48.796;9.210;2022-08-20T08:57:32;96676.00;;;27.50
18704;BMP180;9481;48.796;9.210;2022-08-20T09:00:05;96673.00;;;27.60
18704;BMP180;9481;48.796;9.210;2022-08-20T09:02:33;96675.00;;;27.70
18704;BMP180;9481;48.796;9.210;2022-08-20T09:05:04;96673.00;;;27.80
18704;BMP180;9481;48.796;9.210;2022-08-20T09:07:37;96675.00;;;27.80
18704;BMP180;9481;48.796;9.210;2022-08-20T09:10:04;96671.00;;;27.80
18704;BMP180;9481;48.796;9.210;2022-08-20T09:12:31;96677.00;;;27.80
18704;BMP180;9481;48.796;9.210;2022-08-20T09:14:57;96673.00;;;27.70
18704;BMP180;9481;48.796;9.210;2022-08-20T09:17:23;96675.00;;;27.70
18704;BMP180;9481;48.796;9.210;2022-08-20T09:19:49;96678.00;;;27.60
18704;BMP180;9481;48.796;9.210;2022-08-20T09:22:20;96669.00;;;27.60
18704;BMP180;9481;48.796;9.210;2022-08-20T09:24:47;96672.00;;;27.60
18704;BMP180;9481;48.796;9.210;2022-08-20T09:27:13;96677.00;;;27.50
18704;BMP180;9481;48.796;9.210;2022-08-20T09:29:40;96676.00;;;27.50
18704;BMP180;9481;48.796;9.210;2022-08-20T09:32:17;96681.00;;;27.40
18704;BMP180;9481;48.796;9.210;2022-08-20T09:34:46;96680.00;;;27.40
18704;BMP180;9481;48.796;9.210;2022-08-20T09:37:14;96671.00;;;27.30
18704;BMP180;9481;48.796;9.210;2022-08-20T09:39:40;96666.00;;;27.30
18704;BMP180;9481;48.796;9.210;2022-08-20T09:42:10;96670.00;;;27.20
18704;BMP180;9481;48.796;9.210;2022-08-20T09:44:37;96670.00;;;27.20
18704;BMP180;9481;48.796;9.210;2022-08-20T09:47:04;96659.00;;;27.20
18704;BMP180;9481;48.796;9.210;2022-08-20T09:49:30;96670.00;;;27.10
18704;BMP180;9481;48.796;9.210;2022-08-20T09:51:56;96671.00;;;27.10
18704;BMP180;9481;48.796;9.210;2022-08-20T09:54:24;96663.00;;;27.10
18704;BMP180;9481;48.796;9.210;2022-08-20T09:56:56;96650.00;;;27.10
18704;BMP180;9481;48.796;9.210;2022-08-20T09:59:23;96663.00;;;27.20
18704;BMP180;9481;48.796;9.210;2022-08-20T10:01:49;96668.00;;;27.30
18704;BMP180;9481;48.796;9.210;2022-08-20T10:04:15;96657.00;;;27.40
18704;BMP180;9481;48.796;9.210;2022-08-20T10:06:41;96673.00;;;27.40
18704;BMP180;9481;48.796;9.210;2022-08-20T10:09:07;96672.00;;;27.50
18704;BMP180;9481;48.796;9.210;2022-08-20T10:11:32;96669.00;;;27.70
18704;BMP180;9481;48.796;9.210;2022-08-20T10:13:58;96668.00;;;27.70
18704;BMP180;9481;48.796;9.210;2022-08-20T10:16:24;96665.00;;;27.70
18704;BMP180;9481;48.796;9.210;2022-08-20T10:18:50;96665.00;;;27.70
18704;BMP180;9481;48.796;9.210;2022-08-20T10:21:16;96667.00;;;27.70
18704;BMP180;9481;48.796;9.210;2022-08-20T10:23:42;96675.00;;;27.70
18704;BMP180;9481;48.796;9.210;2022-08-20T10:26:10;96671.00;;;27.60
18704;BMP180;9481;48.796;9.210;2022-08-20T10:28:37;96665.00;;;27.60
18704;BMP180;9481;48.796;9.210;2022-08-20T10:31:06;96664.00;;;27.50
18704;BMP180;9481;48.796;9.210;2022-08-20T10:33:32;96656.00;;;27.70
18704;BMP180;9481;48.796;9.210;2022-08-20T10:36:09;96655.00;;;27.80
18704;BMP180;9481;48.796;9.210;2022-08-20T10:38:35;96659.00;;;28.00
18704;BMP180;9481;48.796;9.210;2022-08-20T10:41:02;96648.00;;;28.00
18704;BMP180;9481;48.796;9.210;2022-08-20T10:43:28;96655.00;;;28.00
18704;BMP180;9481;48.796;9.210;2022-08-20T10:45:53;96659.00;;;28.00
18704;BMP180;9481;48.796;9.210;2022-08-20T10:48:20;96664.00;;;28.00
18704;BMP180;9481;48.796;9.210;2022-08-20T10:50:45;96663.00;;;28.00
18704;BMP180;9481;48.796;9.210;2022-08-20T10:53:11;96661.00;;;27.90
18704;BMP180;9481;48.796;9.210;2022-08-20T10:55:37;96651.00;;;27.80
18704;BMP180;9481;48.796;9.210;2022-08-20T10:58:07;96660.00;;;27.70
18704;BMP180;9481;48.796;9.210;2022-08-20T11:00:34;96657.00;;;27.70
18704;BMP180;9481;48.796;9.210;2022-08-20T11:03:00;96664.00;;;27.60
18704;BMP180;9481;48.796;9.210;2022-08-20T11:05:27;96666.00;;;27.60
18704;BMP180;9481;48.796;9.210;2022-08-20T11:07:53;96664.00;;;27.60
18704;BMP180;9481;48.796;9.210;2022-08-20T11:10:21;96673.00;;;27.60
18704;BMP180;9481;48.796;9.210;2022-08-20T11:12:47;96692.00;;;27.50
18704;BMP180;9481;48.796;9.210;2022-08-20T11:15:14;96693.00;;;27.50
18704;BMP180;9481;48.796;9.210;2022-08-20T11:17:42;96691.00;;;27.50
18704;BMP180;9481;48.796;9.210;2022-08-20T11:20:11;96691.00;;;27.40
18704;BMP180;9481;48.796;9.210;2022-08-20T11:22:37;96696.00;;;27.40
18704;BMP180;9481;48.796;9.210;2022-08-20T11:25:05;96689.00;;;27.30
18704;BMP180;9481;48.796;9.210;2022-08-20T11:27:38;96679.00;;;27.30
18704;BMP180;9481;48.796;9.210;2022-08-20T11:30:07;96676.00;;;27.30
18704;BMP180;9481;48.796;9.210;2022-08-20T11:32:34;96675.00;;;27.30
18704;BMP180;9481;48.796;9.210;2022-08-20T11:34:59;96677.00;;;27.30
18704;BMP180;9481;48.796;9.210;2022-08-20T11:37:26;96688.00;;;27.30
18704;BMP180;9481;48.796;9.210;2022-08-20T11:39:53;96683.00;;;27.30
18704;BMP180;9481;48.796;9.210;2022-08-20T11:42:18;96684.00;;;27.30
18704;BMP180;9481;48.796;9.210;2022-08-20T11:44:44;96693.00;;;27.20
18704;BMP180;9481;48.796;9.210;2022-08-20T11:47:28;96704.00;;;27.20
18704;BMP180;9481;48.796;9.210;2022-08-20T11:50:05;96707.00;;;27.20
18704;BMP180;9481;48.796;9.210;2022-08-20T11:52:32;96710.00;;;27.20
18704;BMP180;9481;48.796;9.210;2022-08-20T11:54:58;96706.00;;;27.10
18704;BMP180;9481;48.796;9.210;2022-08-20T11:57:27;96713.00;;;27.10
18704;BMP180;9481;48.796;9.210;2022-08-20T11:59:56;96713.00;;;27.20
18704;BMP180;9481;48.796;9.210;2022-08-20T12:02:22;96708.00;;;27.10
18704;BMP180;9481;48.796;9.210;2022-08-20T12:04:48;96718.00;;;27.10
18704;BMP180;9481;48.796;9.210;2022-08-20T12:07:21;96717.00;;;27.10
18704;BMP180;9481;48.796;9.210;2022-08-20T12:09:48;96703.00;;;27.00
18704;BMP180;9481;48.796;9.210;2022-08-20T12:12:15;96710.00;;;27.10
18704;BMP180;9481;48.796;9.210;2022-08-20T12:14:41;96713.00;;;27.00
18704;BMP180;9481;48.796;9.210;2022-08-20T12:17:17;96709.00;;;27.00
18704;BMP180;9481;48.796;9.210;2022-08-20T12:19:44;96711.00;;;27.10
18704;BMP180;9481;48.796;9.210;2022-08-20T12:22:10;96711.00;;;27.10
18704;BMP180;9481;48.796;9.210;2022-08-20T12:24:36;96706.00;;;27.20
18704;BMP180;9481;48.796;9.210;2022-08-20T12:27:11;96707.00;;;27.20
18704;BMP180;9481;48.796;9.210;2022-08-20T12:29:39;96701.00;;;27.20
18704;BMP180;9481;48.796;9.210;2022-08-20T12:32:06;96701.00;;;27.30
18704;BMP180;9481;48.796;9.210;2022-08-20T12:34:34;96702.00;;;27.30
18704;BMP180;9481;48.796;9.210;2022-08-20T12:37:16;96691.00;;;27.20
18704;BMP180;9481;48.796;9.210;2022-08-20T12:39:46;96689.00;;;27.30
18704;BMP180;9481;48.796;9.210;2022-08-20T12:42:14;96692.00;;;27.30
18704;BMP180;9481;48.796;9.210;2022-08-20T12:44:41;96694.00;;;27.40
18704;BMP180;9481;48.796;9.210;2022-08-20T12:47:25;96684.00;;;27.40
18704;BMP180;9481;48.796;9.210;2022-08-20T12:49:58;96686.00;;;27.50
18704;BMP180;9481;48.796;9.210;2022-08-20T12:52:27;96677.00;;;27.50
18704;BMP180;9481;48.796;9.210;2022-08-20T12:54:54;96687.00;;;27.60
18704;BMP180;9481;48.796;9.210;2022-08-20T12:57:38;96688.00;;;27.70
18704;BMP180;9481;48.796;9.210;2022-08-20T13:00:08;96685.00;;;27.80
18704;BMP180;9481;48.796;9.210;2022-08-20T13:02:36;96688.00;;;27.90
18704;BMP180;9481;48.796;9.210;2022-08-20T13:05:04;96675.00;;;28.00
18704;BMP180;9481;48.796;9.210;2022-08-20T13:07:31;96671.00;;;28.10
18704;BMP180;9481;48.796;9.210;2022-08-20T13:09:58;96677.00;;;28.10
18704;BMP180;9481;48.796;9.210;2022-08-20T13:12:23;96688.00;;;28.20
18704;BMP180;9481;48.796;9.210;2022-08-20T13:14:49;96705.00;;;28.10
18704;BMP180;9481;48.796;9.210;2022-08-20T13:17:17;96715.00;;;28.10
18704;BMP180;9481;48.796;9.210;2022-08-20T13:19:44;96724.00;;;28.00
18704;BMP180;9481;48.796;9.210;2022-08-20T13:22:13;96709.00;;;27.80
18704;BMP180;9481;48.796;9.210;2022-08-20T13:24:39;96703.00;;;27.70
18704;BMP180;9481;48.796;9.210;2022-08-20T13:27:10;96702.00;;;27.60
18704;BMP180;9481;48.796;9.210;2022-08-20T13:29:37;96701.00;;;27.50
18704;BMP180;9481;48.796;9.210;2022-08-20T13:32:04;96706.00;;;27.50
18704;BMP180;9481;48.796;9.210;2022-08-20T13:34:30;96702.00;;;27.60
18704;BMP180;9481;48.796;9.210;2022-08-20T13:36:56;96709.00;;;27.50
18704;BMP180;9481;48.796;9.210;2022-08-20T13:39:23;96704.00;;;27.50
18704;BMP180;9481;48.796;9.210;2022-08-20T13:41:49;96708.00;;;27.50
18704;BMP180;9481;48.796;9.210;2022-08-20T13:44:14;96718.00;;;27.50
18704;BMP180;9481;48.796;9.210;2022-08-20T13:46:40;96718.00;;;27.40
18704;BMP180;9481;48.796;9.210;2022-08-20T13:49:06;96722.00;;;27.30
18704;BMP180;9481;48.796;9.210;2022-08-20T13:51:31;96720.00;;;27.30
18704;BMP180;9481;48.796;9.210;2022-08-20T13:53:57;96713.00;;;27.20
18704;BMP180;9481;48.796;9.210;2022-08-20T13:56:23;96713.00;;;27.20
18704;BMP180;9481;48.796;9.210;2022-08-20T13:58:48;96722.00;;;27.20
18704;BMP180;9481;48.796;9.210;2022-08-20T14:01:14;96713.00;;;27.30
18704;BMP180;9481;48.796;9.210;2022-08-20T14:03:40;96699.00;;;27.30
18704;BMP180;9481;48.796;9.210;2022-08-20T14:06:06;96706.00;;;27.40
18704;BMP180;9481;48.796;9.210;2022-08-20T14:08:35;96697.00;;;27.50
18704;BMP180;9481;48.796;9.210;2022-08-20T14:11:01;96700.00;;;27.60
18704;BMP180;9481;48.796;9.210;2022-08-20T14:13:27;96694.00;;;27.70
18704;BMP180;9481;48.796;9.210;2022-08-20T14:15:54;96703.00;;;27.80
18704;BMP180;9481;48.796;9.210;2022-08-20T14:18:21;96686.00;;;27.80
18704;BMP180;9481;48.796;9.210;2022-08-20T14:20:47;96686.00;;;27.80
18704;BMP180;9481;48.796;9.210;2022-08-20T14:23:14;96687.00;;;27.90
18704;BMP180;9481;48.796;9.210;2022-08-20T14:25:40;96685.00;;;27.90
18704;BMP180;9481;48.796;9.210;2022-08-20T14:28:12;96687.00;;;27.80
18704;BMP180;9481;48.796;9.210;2022-08-20T14:30:39;96676.00;;;27.90